Loon Lake, New York
Current Conditions -  °F | °C
As of 4:40 AM on Friday 31 Oct 2014 (Local Time) from KSLK Reporting Station
Overcast Overcast  
Wind Chill: 30°   Ceiling: 400
Heat Index: 30°   Visibility: 10mi
Dew Point: 28°   Wind: 0mph
Humidity: 92%   Direction: NA
Pressure: 29.97"   Gusts: NA
Location:  44.5284°N, 74.0904°W
Report Text: KSLK 310840Z AUTO 00000KT 10SM OVC004 M01/M02 A2997 RMK AO2 CIG 001V006 T10111022
Loading
Personal Weather Stations






























Interactive Weather Map
Tropical Storm Tracking
New forecast layout! Learn more

10-Day Weather Forecast

Advertisements
Track Severe Weather on mobile